createdAt,value
2019-03-06T00:00:57.812Z,94354.70
2019-03-06T00:03:26.719Z,94346.22
2019-03-06T00:05:55.466Z,94337.64
2019-03-06T00:08:24.016Z,94336.60
2019-03-06T00:10:52.881Z,94340.21
2019-03-06T00:13:21.488Z,94329.91
2019-03-06T00:15:50.353Z,94336.45
2019-03-06T00:18:19.199Z,94339.25
2019-03-06T00:20:47.799Z,94331.64
2019-03-06T00:23:16.439Z,94327.25
2019-03-06T00:25:45.023Z,94328.09
2019-03-06T00:28:14.029Z,94320.33
2019-03-06T00:30:42.871Z,94313.63
2019-03-06T00:33:11.711Z,94314.45
2019-03-06T00:35:43.979Z,94317.23
2019-03-06T00:38:12.647Z,94318.19
2019-03-06T00:40:52.415Z,94312.92
2019-03-06T00:43:21.008Z,94311.77
2019-03-06T00:45:49.605Z,94311.58
2019-03-06T00:48:18.198Z,94318.34
2019-03-06T00:50:46.971Z,94315.19
2019-03-06T00:53:15.570Z,94309.59
2019-03-06T00:55:44.161Z,94303.91
2019-03-06T00:58:12.785Z,94306.97
2019-03-06T01:00:41.371Z,94306.20
2019-03-06T01:03:10.620Z,94299.25
2019-03-06T01:05:39.671Z,94291.14
2019-03-06T01:08:08.250Z,94290.55
2019-03-06T01:10:37.091Z,94292.33
2019-03-06T01:13:05.910Z,94287.86
2019-03-06T01:15:34.846Z,94283.45
2019-03-06T01:18:03.586Z,94284.61
2019-03-06T01:20:32.265Z,94295.88
2019-03-06T01:23:00.833Z,94286.63
2019-03-06T01:25:29.734Z,94293.92
2019-03-06T01:27:58.661Z,94293.92
2019-03-06T01:30:27.292Z,94288.83
2019-03-06T01:33:00.816Z,94284.38
2019-03-06T01:36:00.300Z,94283.77
2019-03-06T01:38:46.380Z,94278.16
2019-03-06T01:41:24.507Z,94282.00
2019-03-06T01:43:57.861Z,94280.19
2019-03-06T01:46:26.931Z,94275.61
2019-03-06T01:48:55.797Z,94275.28
2019-03-06T01:51:24.398Z,94272.89
2019-03-06T01:53:53.570Z,94274.30
2019-03-06T01:56:22.397Z,94265.22
2019-03-06T01:58:51.450Z,94267.77
2019-03-06T02:01:20.145Z,94272.20
2019-03-06T02:03:48.977Z,94268.86
2019-03-06T02:06:17.781Z,94261.39
2019-03-06T02:08:46.476Z,94258.48
2019-03-06T02:11:15.398Z,94259.85
2019-03-06T02:13:44.009Z,94251.27
2019-03-06T02:16:12.575Z,94253.98
2019-03-06T02:18:41.826Z,94256.11
2019-03-06T02:21:10.575Z,94248.25
2019-03-06T02:23:39.165Z,94244.36
2019-03-06T02:26:08.307Z,94250.47
2019-03-06T02:28:36.903Z,94253.16
2019-03-06T02:31:05.887Z,94249.49
2019-03-06T02:33:34.742Z,94244.92
2019-03-06T02:36:03.578Z,94241.02
2019-03-06T02:38:32.971Z,94242.69
2019-03-06T02:41:02.035Z,94239.86
2019-03-06T02:43:30.628Z,94236.66
2019-03-06T02:45:59.455Z,94230.14
2019-03-06T02:48:28.072Z,94223.52
2019-03-06T02:50:56.747Z,94223.09
2019-03-06T02:53:25.683Z,94221.97
2019-03-06T02:55:54.564Z,94219.59
2019-03-06T02:58:32.745Z,94219.23
2019-03-06T03:01:17.285Z,94219.20
2019-03-06T03:04:16.983Z,94209.37
2019-03-06T03:07:06.977Z,94211.09
2019-03-06T03:09:35.857Z,94211.06
2019-03-06T03:12:04.868Z,94214.19
2019-03-06T03:14:33.466Z,94220.98
2019-03-06T03:17:02.112Z,94218.54
2019-03-06T03:19:30.742Z,94216.78
2019-03-06T03:21:59.558Z,94210.99
2019-03-06T03:24:28.222Z,94214.91
2019-03-06T03:26:56.815Z,94214.23
2019-03-06T03:29:25.391Z,94217.46
2019-03-06T03:31:54.038Z,94215.70
2019-03-06T03:34:22.617Z,94213.63
2019-03-06T03:36:51.593Z,94209.31
2019-03-06T03:39:20.183Z,94205.02
2019-03-06T03:41:48.786Z,94206.23
2019-03-06T03:44:17.365Z,94199.33
2019-03-06T03:46:46.254Z,94193.37
2019-03-06T03:49:15.064Z,94186.50
2019-03-06T03:51:43.680Z,94181.86
2019-03-06T03:54:12.560Z,94179.70
2019-03-06T03:56:41.159Z,94180.06
2019-03-06T03:59:09.759Z,94178.28
2019-03-06T04:01:38.446Z,94178.69
2019-03-06T04:04:07.019Z,94183.33
2019-03-06T04:06:35.612Z,94183.11
2019-03-06T04:09:05.246Z,94179.77
2019-03-06T04:11:33.942Z,94183.22
2019-03-06T04:14:02.596Z,94169.38
2019-03-06T04:16:31.632Z,94161.45
2019-03-06T04:19:00.459Z,94160.56
2019-03-06T04:21:29.280Z,94154.33
2019-03-06T04:23:57.870Z,94138.73
2019-03-06T04:26:26.545Z,94145.32
2019-03-06T04:28:55.403Z,94148.25
2019-03-06T04:31:23.970Z,94141.45
2019-03-06T04:33:52.559Z,94144.88
2019-03-06T04:36:21.144Z,94131.18
2019-03-06T04:38:49.780Z,94125.16
2019-03-06T04:41:18.603Z,94131.67
2019-03-06T04:43:47.209Z,94130.98
2019-03-06T04:46:15.804Z,94130.65
2019-03-06T04:48:44.431Z,94130.00
2019-03-06T04:51:13.271Z,94125.75
2019-03-06T04:53:41.841Z,94128.77
2019-03-06T04:56:10.434Z,94136.38
2019-03-06T04:58:39.297Z,94133.46
2019-03-06T05:01:07.956Z,94129.59
2019-03-06T05:03:36.584Z,94138.45
2019-03-06T05:06:05.199Z,94141.50
2019-03-06T05:08:33.970Z,94137.19
2019-03-06T05:11:02.815Z,94133.80
2019-03-06T05:13:31.465Z,94131.50
2019-03-06T05:16:00.121Z,94129.09
2019-03-06T05:18:53.595Z,94131.50
2019-03-06T05:21:22.216Z,94127.95
2019-03-06T05:23:50.852Z,94122.50
2019-03-06T05:26:19.452Z,94121.05
2019-03-06T05:28:48.355Z,94127.22
2019-03-06T05:31:16.980Z,94118.06
2019-03-06T05:33:45.605Z,94120.75
2019-03-06T05:36:57.394Z,94109.17
2019-03-06T05:39:25.982Z,94110.86
2019-03-06T05:41:54.591Z,94112.41
2019-03-06T05:44:23.200Z,94113.61
2019-03-06T05:46:52.311Z,94099.53
2019-03-06T05:49:20.910Z,94094.97
2019-03-06T05:51:49.824Z,94087.61
2019-03-06T05:54:18.640Z,94076.20
2019-03-06T05:56:48.489Z,94086.72
2019-03-06T05:59:17.458Z,94076.48
2019-03-06T06:01:46.168Z,94064.59
2019-03-06T06:04:15.015Z,94067.78
2019-03-06T06:06:43.668Z,94065.22
2019-03-06T06:09:12.277Z,94060.73
2019-03-06T06:11:41.505Z,94065.25
2019-03-06T06:14:10.118Z,94053.78
2019-03-06T06:16:39.008Z,94065.27
2019-03-06T06:19:07.682Z,94054.41
2019-03-06T06:21:58.545Z,94046.73
2019-03-06T06:24:29.096Z,94049.66
2019-03-06T06:26:58.390Z,94041.30
2019-03-06T06:29:27.008Z,94045.23
2019-03-06T06:31:55.880Z,94035.81
2019-03-06T06:34:24.503Z,94040.73
2019-03-06T06:36:53.173Z,94034.74
2019-03-06T06:39:21.946Z,94037.14
2019-03-06T06:41:50.890Z,94049.59
2019-03-06T06:44:19.919Z,94045.66
2019-03-06T06:46:48.515Z,94038.23
2019-03-06T06:49:17.224Z,94044.30
2019-03-06T06:51:59.379Z,94036.45
2019-03-06T06:54:49.963Z,94042.36
2019-03-06T06:57:40.702Z,94028.70
2019-03-06T07:01:03.173Z,94033.86
2019-03-06T07:04:32.756Z,94024.02
2019-03-06T07:07:12.863Z,94026.36
2019-03-06T07:09:59.695Z,94028.91
2019-03-06T07:12:50.345Z,94025.61
2019-03-06T07:15:41.358Z,94011.89
2019-03-06T07:18:24.542Z,94009.05
2019-03-06T07:21:21.728Z,94012.14
2019-03-06T07:24:24.652Z,94013.97
2019-03-06T07:27:17.861Z,94006.51
2019-03-06T07:30:14.743Z,94010.08
2019-03-06T07:33:11.196Z,94004.16
2019-03-06T07:36:18.898Z,93999.52
2019-03-06T07:38:49.016Z,93999.18
2019-03-06T07:41:29.192Z,93998.68
2019-03-06T07:44:29.769Z,93992.99
2019-03-06T07:47:09.749Z,93990.86
2019-03-06T07:49:59.690Z,93986.91
2019-03-06T07:52:47.475Z,93987.13
2019-03-06T07:55:38.234Z,93995.53
2019-03-06T07:58:42.758Z,93982.05
2019-03-06T08:01:17.098Z,93974.36
2019-03-06T08:04:09.938Z,93973.55
2019-03-06T08:06:39.134Z,93981.14
2019-03-06T08:09:08.996Z,93975.47
2019-03-06T08:11:55.366Z,93977.72
2019-03-06T08:14:41.885Z,93981.39
2019-03-06T08:17:35.760Z,93973.70
2019-03-06T08:20:26.673Z,93973.07
2019-03-06T08:23:23.893Z,93966.54
2019-03-06T08:25:53.189Z,93972.55
2019-03-06T08:28:21.807Z,93966.83
2019-03-06T08:31:03.556Z,93961.58
2019-03-06T08:33:32.341Z,93968.05
2019-03-06T08:36:01.283Z,93967.80
2019-03-06T08:38:30.158Z,93966.08
2019-03-06T08:41:04.272Z,93966.30
2019-03-06T08:43:29.228Z,93960.66
2019-03-06T08:46:17.027Z,93961.37
2019-03-06T08:49:04.448Z,93951.80
2019-03-06T08:51:42.156Z,93963.22
2019-03-06T08:54:20.607Z,93958.95
2019-03-06T08:57:17.553Z,93947.92
2019-03-06T09:00:09.491Z,93934.61
2019-03-06T09:02:55.624Z,93944.95
2019-03-06T09:05:35.441Z,93936.03
2019-03-06T09:08:26.321Z,93941.58
2019-03-06T09:11:03.050Z,93941.95
2019-03-06T09:13:42.859Z,93934.98
2019-03-06T09:16:21.046Z,93950.02
2019-03-06T09:19:11.849Z,93937.54
2019-03-06T09:21:46.099Z,93940.54
2019-03-06T09:24:27.221Z,93927.61
2019-03-06T09:27:02.499Z,93943.23
2019-03-06T09:29:59.346Z,93921.33
2019-03-06T09:32:39.022Z,93927.61
2019-03-06T09:35:25.692Z,93922.83
2019-03-06T09:38:25.522Z,93919.55
2019-03-06T09:41:11.725Z,93914.09
2019-03-06T09:43:55.129Z,93904.41
2019-03-06T09:46:42.771Z,93904.41
2019-03-06T09:49:28.969Z,93904.89
2019-03-06T09:52:15.094Z,93906.75
2019-03-06T09:54:57.101Z,93902.28
2019-03-06T09:57:43.414Z,93899.05
2019-03-06T10:00:43.465Z,93903.58
2019-03-06T10:03:27.640Z,93894.78
2019-03-06T10:06:12.313Z,93885.73
2019-03-06T10:09:11.994Z,93887.25
2019-03-06T10:11:48.810Z,93866.58
2019-03-06T10:14:25.638Z,93862.47
2019-03-06T10:17:08.317Z,93862.12
2019-03-06T10:19:41.568Z,93857.24
2019-03-06T10:22:10.230Z,93867.08
2019-03-06T10:24:38.817Z,93872.81
2019-03-06T10:27:07.704Z,93861.92
2019-03-06T10:29:36.511Z,93858.22
2019-03-06T10:32:05.545Z,93855.05
2019-03-06T10:34:34.400Z,93849.50
2019-03-06T10:37:03.081Z,93843.50
2019-03-06T10:39:31.732Z,93833.82
2019-03-06T10:42:00.354Z,93812.00
2019-03-06T10:44:30.001Z,93807.23
2019-03-06T10:46:58.998Z,93799.28
2019-03-06T10:49:27.987Z,93800.45
2019-03-06T10:51:56.905Z,93811.15
2019-03-06T10:54:25.783Z,93803.38
2019-03-06T10:56:54.782Z,93795.44
2019-03-06T10:59:23.792Z,93797.97
2019-03-06T11:01:52.478Z,93775.14
2019-03-06T11:04:31.065Z,93783.84
2019-03-06T11:06:59.795Z,93783.80
2019-03-06T11:09:28.851Z,93774.54
2019-03-06T11:11:58.732Z,93773.13
2019-03-06T11:14:27.532Z,93774.42
2019-03-06T11:16:56.254Z,93774.31
2019-03-06T11:19:25.108Z,93780.56
2019-03-06T11:21:53.894Z,93774.22
2019-03-06T11:24:22.592Z,93766.91
2019-03-06T11:26:51.587Z,93771.94
2019-03-06T11:29:20.502Z,93761.16
2019-03-06T11:31:49.154Z,93758.08
2019-03-06T11:34:17.893Z,93752.21
2019-03-06T11:36:46.827Z,93754.92
2019-03-06T11:39:15.418Z,93754.92
2019-03-06T11:41:44.127Z,93752.50
2019-03-06T11:44:12.758Z,93740.35
2019-03-06T11:46:41.775Z,93731.03
2019-03-06T11:49:10.428Z,93740.45
2019-03-06T11:51:39.189Z,93722.16
2019-03-06T11:54:08.650Z,93718.70
2019-03-06T11:56:37.384Z,93709.75
2019-03-06T11:59:06.152Z,93710.72
2019-03-06T12:01:36.197Z,93727.16
2019-03-06T12:04:05.679Z,93692.19
2019-03-06T12:06:34.381Z,93683.96
2019-03-06T12:09:03.806Z,93681.22
2019-03-06T12:11:32.648Z,93670.19
2019-03-06T12:14:01.332Z,93672.22
2019-03-06T12:16:30.084Z,93663.39
2019-03-06T12:18:58.711Z,93666.35
2019-03-06T12:21:27.573Z,93651.13
2019-03-06T12:24:15.663Z,93659.02
2019-03-06T12:26:44.349Z,93653.13
2019-03-06T12:29:13.241Z,93649.22
2019-03-06T12:31:43.939Z,93655.56
2019-03-06T12:34:12.625Z,93645.94
2019-03-06T12:36:41.557Z,93642.69
2019-03-06T12:39:10.239Z,93640.84
2019-03-06T12:41:39.088Z,93644.29
2019-03-06T12:44:10.662Z,93626.20
2019-03-06T12:46:38.145Z,93631.42
2019-03-06T12:49:14.500Z,93625.37
2019-03-06T12:51:43.088Z,93616.91
2019-03-06T12:54:11.760Z,93613.96
2019-03-06T12:56:40.400Z,93607.80
2019-03-06T12:59:09.290Z,93624.54
2019-03-06T13:01:39.221Z,93588.86
2019-03-06T13:04:08.058Z,93617.30
2019-03-06T13:06:36.861Z,93612.25
2019-03-06T13:09:14.140Z,93616.05
2019-03-06T13:11:42.905Z,93596.30
2019-03-06T13:14:11.804Z,93579.17
2019-03-06T13:16:41.129Z,93594.47
2019-03-06T13:19:09.820Z,93570.83
2019-03-06T13:21:38.741Z,93564.05
2019-03-06T13:24:07.354Z,93560.52
2019-03-06T13:26:36.029Z,93559.87
2019-03-06T13:29:04.736Z,93558.94
2019-03-06T13:31:33.869Z,93554.29
2019-03-06T13:34:16.122Z,93555.27
2019-03-06T13:36:44.694Z,93548.33
2019-03-06T13:39:13.431Z,93562.49
2019-03-06T13:41:42.283Z,93540.05
2019-03-06T13:44:11.001Z,93544.64
2019-03-06T13:46:39.673Z,93539.05
2019-03-06T13:49:08.895Z,93540.69
2019-03-06T13:51:38.869Z,93532.45
2019-03-06T13:54:07.475Z,93528.59
2019-03-06T13:56:36.175Z,93521.36
2019-03-06T13:59:05.660Z,93518.55
2019-03-06T14:01:34.895Z,93508.33
2019-03-06T14:04:03.567Z,93501.48
2019-03-06T14:06:32.798Z,93490.02
2019-03-06T14:09:01.920Z,93500.00
2019-03-06T14:11:30.600Z,93494.52
2019-03-06T14:13:59.526Z,93496.88
2019-03-06T14:16:28.131Z,93491.95
2019-03-06T14:18:56.783Z,93499.84
2019-03-06T14:21:25.898Z,93495.12
2019-03-06T14:23:54.539Z,93486.23
2019-03-06T14:26:23.668Z,93475.16
2019-03-06T14:28:52.488Z,93474.83
2019-03-06T14:31:23.148Z,93459.81
2019-03-06T14:33:51.585Z,93449.85
2019-03-06T14:36:20.563Z,93441.98
2019-03-06T14:38:49.339Z,93439.14
2019-03-06T14:41:18.033Z,93437.82
2019-03-06T14:43:46.990Z,93440.77
2019-03-06T14:46:16.738Z,93437.77
2019-03-06T14:48:45.641Z,93440.67
2019-03-06T14:51:15.042Z,93440.39
2019-03-06T14:53:43.863Z,93438.55
2019-03-06T14:56:12.463Z,93439.80
2019-03-06T14:58:41.392Z,93430.02
2019-03-06T15:01:10.214Z,93408.54
2019-03-06T15:03:39.143Z,93412.58
2019-03-06T15:06:07.862Z,93412.45
2019-03-06T15:08:37.614Z,93415.64
2019-03-06T15:11:06.927Z,93413.56
2019-03-06T15:13:35.883Z,93405.42
2019-03-06T15:16:04.867Z,93418.52
2019-03-06T15:18:33.835Z,93410.92
2019-03-06T15:21:02.758Z,93419.09
2019-03-06T15:23:32.635Z,93423.72
2019-03-06T15:26:01.344Z,93424.03
2019-03-06T15:28:30.358Z,93433.53
2019-03-06T15:30:59.151Z,93437.89
2019-03-06T15:33:28.097Z,93436.63
2019-03-06T15:35:56.896Z,93430.37
2019-03-06T15:38:25.610Z,93438.70
2019-03-06T15:40:54.380Z,93445.83
2019-03-06T15:43:23.318Z,93441.43
2019-03-06T15:45:51.944Z,93437.47
2019-03-06T15:48:20.575Z,93435.42
2019-03-06T15:50:49.592Z,93424.24
2019-03-06T15:53:24.497Z,93419.48
2019-03-06T15:55:48.913Z,93412.19
2019-03-06T15:58:17.815Z,93426.52
2019-03-06T16:00:46.825Z,93428.92
2019-03-06T16:03:15.640Z,93425.95
2019-03-06T16:05:44.420Z,93411.12
2019-03-06T16:08:14.144Z,93414.31
2019-03-06T16:10:43.418Z,93406.67
2019-03-06T16:13:12.429Z,93412.97
2019-03-06T16:15:41.392Z,93412.78
2019-03-06T16:18:10.339Z,93408.62
2019-03-06T16:20:39.404Z,93395.61
2019-03-06T16:23:08.451Z,93387.50
2019-03-06T16:25:39.978Z,93388.04
2019-03-06T16:28:07.984Z,93387.69
2019-03-06T16:30:37.115Z,93393.14
2019-03-06T16:33:05.852Z,93385.66
2019-03-06T16:35:34.520Z,93367.87
2019-03-06T16:38:03.273Z,93368.86
2019-03-06T16:40:32.115Z,93369.12
2019-03-06T16:43:00.773Z,93367.37
2019-03-06T16:45:29.955Z,93376.08
2019-03-06T16:47:58.901Z,93363.91
2019-03-06T16:50:27.698Z,93352.95
2019-03-06T16:52:57.204Z,93361.33
2019-03-06T16:55:26.285Z,93359.45
2019-03-06T16:57:55.332Z,93365.10
2019-03-06T17:00:29.155Z,93359.59
2019-03-06T17:02:58.184Z,93356.69
2019-03-06T17:05:27.157Z,93352.20
2019-03-06T17:07:56.783Z,93360.08
2019-03-06T17:10:25.671Z,93351.42
2019-03-06T17:12:54.593Z,93349.72
2019-03-06T17:15:23.902Z,93359.47
2019-03-06T17:20:59.488Z,93343.58
2019-03-06T17:23:28.374Z,93355.88
2019-03-06T17:25:57.291Z,93339.81
2019-03-06T17:28:26.232Z,93347.56
2019-03-06T17:30:54.905Z,93350.61
2019-03-06T17:33:24.334Z,93345.38
2019-03-06T17:35:52.952Z,93355.25
2019-03-06T17:38:21.793Z,93340.03
2019-03-06T17:40:50.573Z,93344.61
2019-03-06T17:43:19.284Z,93322.36
2019-03-06T17:45:47.917Z,93328.45
2019-03-06T17:48:16.887Z,93332.75
2019-03-06T17:50:45.493Z,93323.63
2019-03-06T17:53:14.173Z,93316.50
2019-03-06T17:55:43.105Z,93319.42
2019-03-06T17:58:11.705Z,93318.47
2019-03-06T18:00:46.045Z,93327.83
2019-03-06T18:03:17.446Z,93319.45
2019-03-06T18:05:46.116Z,93339.09
2019-03-06T18:08:14.804Z,93339.89
2019-03-06T18:10:43.396Z,93328.28
2019-03-06T18:13:12.499Z,93336.64
2019-03-06T18:15:44.341Z,93325.02
2019-03-06T18:18:12.638Z,93334.42
2019-03-06T18:20:41.319Z,93328.31
2019-03-06T18:23:10.043Z,93321.04
2019-03-06T18:25:39.089Z,93313.45
2019-03-06T18:28:07.929Z,93314.45
2019-03-06T18:30:37.046Z,93295.51
2019-03-06T18:33:06.145Z,93307.64
2019-03-06T18:35:34.858Z,93304.11
2019-03-06T18:38:03.538Z,93294.95
2019-03-06T18:40:32.936Z,93286.58
2019-03-06T18:43:01.804Z,93284.31
2019-03-06T18:45:30.688Z,93284.41
2019-03-06T18:47:59.299Z,93285.63
2019-03-06T18:50:27.966Z,93288.29
2019-03-06T18:52:56.785Z,93281.91
2019-03-06T18:55:25.849Z,93281.77
2019-03-06T18:57:54.539Z,93283.28
2019-03-06T19:00:23.236Z,93272.08
2019-03-06T19:02:52.412Z,93290.16
2019-03-06T19:05:21.384Z,93277.45
2019-03-06T19:07:50.367Z,93270.50
2019-03-06T19:10:19.127Z,93263.45
2019-03-06T19:12:48.197Z,93270.52
2019-03-06T19:15:18.154Z,93264.97
2019-03-06T19:17:46.919Z,93260.56
2019-03-06T19:20:17.101Z,93260.85
2019-03-06T19:22:45.886Z,93267.88
2019-03-06T19:25:15.287Z,93272.01
2019-03-06T19:27:43.883Z,93265.19
2019-03-06T19:30:17.921Z,93260.67
2019-03-06T19:32:46.891Z,93266.98
2019-03-06T19:35:16.226Z,93258.54
2019-03-06T19:37:44.841Z,93262.31
2019-03-06T19:40:14.081Z,93243.80
2019-03-06T19:42:43.235Z,93248.08
2019-03-06T19:45:12.362Z,93244.09
2019-03-06T19:47:41.209Z,93239.00
2019-03-06T19:50:12.247Z,93234.98
2019-03-06T19:52:40.962Z,93225.77
2019-03-06T19:55:11.270Z,93223.77
2019-03-06T19:57:57.699Z,93219.05
2019-03-06T20:00:29.204Z,93215.52
2019-03-06T20:02:57.615Z,93210.00
2019-03-06T20:05:34.517Z,93204.86
2019-03-06T20:08:03.580Z,93196.82
2019-03-06T20:10:32.629Z,93196.78
2019-03-06T20:13:01.341Z,93192.29
2019-03-06T20:15:29.959Z,93195.57
2019-03-06T20:17:58.692Z,93176.95
2019-03-06T20:20:27.778Z,93188.93
2019-03-06T20:22:56.724Z,93184.28
2019-03-06T20:25:25.343Z,93181.77
2019-03-06T20:27:53.934Z,93177.70
2019-03-06T20:30:22.755Z,93174.97
2019-03-06T20:32:56.917Z,93168.17
2019-03-06T20:35:29.220Z,93175.27
2019-03-06T20:37:58.149Z,93180.33
2019-03-06T20:40:26.915Z,93183.62
2019-03-06T20:42:58.066Z,93185.94
2019-03-06T20:45:26.059Z,93176.97
2019-03-06T20:47:54.726Z,93181.23
2019-03-06T20:50:23.821Z,93188.42
2019-03-06T20:52:52.668Z,93186.64
2019-03-06T20:55:21.925Z,93185.66
2019-03-06T20:57:50.606Z,93197.45
2019-03-06T21:00:20.607Z,93193.39
2019-03-06T21:02:49.357Z,93177.89
2019-03-06T21:05:18.017Z,93180.69
2019-03-06T21:07:46.673Z,93177.07
2019-03-06T21:10:15.767Z,93179.95
2019-03-06T21:12:44.364Z,93176.41
2019-03-06T21:15:14.639Z,93182.53
2019-03-06T21:17:43.715Z,93177.11
2019-03-06T21:20:14.687Z,93176.41
2019-03-06T21:22:43.535Z,93178.20
2019-03-06T21:25:13.461Z,93173.31
2019-03-06T21:27:42.299Z,93181.80
2019-03-06T21:30:18.219Z,93172.39
2019-03-06T21:32:46.885Z,93165.69
2019-03-06T21:35:15.503Z,93162.18
2019-03-06T21:37:44.112Z,93153.20
2019-03-06T21:40:12.836Z,93152.00
2019-03-06T21:42:41.701Z,93152.91
2019-03-06T21:45:10.824Z,93147.81
2019-03-06T21:47:39.758Z,93137.89
2019-03-06T21:50:10.488Z,93146.29
2019-03-06T21:52:39.381Z,93131.12
2019-03-06T21:55:09.488Z,93139.08
2019-03-06T21:57:38.080Z,93135.34
2019-03-06T22:00:07.870Z,93132.91
2019-03-06T22:02:36.691Z,93129.45
2019-03-06T22:05:05.697Z,93134.84
2019-03-06T22:07:34.278Z,93128.94
2019-03-06T22:10:02.909Z,93123.12
2019-03-06T22:12:31.538Z,93114.84
2019-03-06T22:15:00.344Z,93115.75
2019-03-06T22:17:28.920Z,93120.77
2019-03-06T22:19:58.053Z,93129.32
2019-03-06T22:22:26.630Z,93124.72
2019-03-06T22:24:55.406Z,93129.16
2019-03-06T22:27:24.228Z,93123.48
2019-03-06T22:29:53.251Z,93122.66
2019-03-06T22:32:21.876Z,93122.87
2019-03-06T22:34:52.078Z,93110.31
2019-03-06T22:37:20.770Z,93102.47
2019-03-06T22:39:49.431Z,93110.78
2019-03-06T22:42:18.039Z,93107.27
2019-03-06T22:44:46.689Z,93114.77
2019-03-06T22:47:15.286Z,93112.77
2019-03-06T22:49:44.044Z,93114.76
2019-03-06T22:52:12.634Z,93115.97
2019-03-06T22:54:41.314Z,93106.53
2019-03-06T22:57:09.917Z,93104.89
2019-03-06T22:59:38.538Z,93095.66
2019-03-06T23:02:07.280Z,93093.52
2019-03-06T23:04:35.910Z,93089.55
2019-03-06T23:07:05.001Z,93089.55
2019-03-06T23:09:33.855Z,93084.05
2019-03-06T23:12:02.448Z,93090.88
2019-03-06T23:14:31.611Z,93091.64
2019-03-06T23:17:00.214Z,93086.22
2019-03-06T23:19:29.065Z,93076.72
2019-03-06T23:21:59.687Z,93076.18
2019-03-06T23:24:28.043Z,93060.08
2019-03-06T23:26:56.646Z,93059.48
2019-03-06T23:29:25.893Z,93050.80
2019-03-06T23:31:54.474Z,93046.30
2019-03-06T23:34:23.635Z,93039.47
2019-03-06T23:36:52.468Z,93037.92
2019-03-06T23:39:21.059Z,93032.05
2019-03-06T23:41:49.905Z,93030.57
2019-03-06T23:44:18.524Z,93023.04
2019-03-06T23:46:47.123Z,93020.52
2019-03-06T23:49:15.742Z,93016.84
2019-03-06T23:51:50.270Z,93007.63
2019-03-06T23:54:19.494Z,93011.50
2019-03-06T23:56:48.244Z,93001.52
2019-03-06T23:59:16.839Z,92991.50
